createdAt,value
2019-04-22T00:00:51.431Z,14.10
2019-04-22T00:03:21.757Z,12.43
2019-04-22T00:06:14.603Z,16.97
2019-04-22T00:08:43.092Z,16.90
2019-04-22T00:11:27.269Z,19.30
2019-04-22T00:13:51.926Z,18.53
2019-04-22T00:16:27.977Z,22.50
2019-04-22T00:19:15.297Z,18.27
2019-04-22T00:21:25.825Z,15.00
2019-04-22T00:24:00.581Z,19.10
2019-04-22T00:26:31.194Z,16.23
2019-04-22T00:29:21.305Z,14.27
2019-04-22T00:31:33.287Z,9.60
2019-04-22T00:34:06.136Z,8.80
2019-04-22T00:36:41.998Z,8.23
2019-04-22T00:39:16.725Z,6.90
2019-04-22T00:41:42.816Z,7.97
2019-04-22T00:44:19.858Z,7.83
2019-04-22T00:46:54.165Z,7.00
2019-04-22T00:50:00.413Z,9.73
2019-04-22T00:54:23.490Z,9.13
2019-04-22T00:56:59.126Z,10.63
2019-04-22T00:59:23.335Z,13.47
2019-04-22T01:02:01.911Z,13.47
2019-04-22T01:04:34.627Z,13.03
2019-04-22T01:06:57.550Z,12.40
2019-04-22T01:09:38.946Z,19.73
2019-04-22T01:12:12.191Z,15.53
2019-04-22T01:14:37.566Z,12.30
2019-04-22T01:17:07.934Z,11.27
2019-04-22T01:19:52.602Z,11.03
2019-04-22T01:22:17.763Z,9.73
2019-04-22T01:24:48.621Z,9.13
2019-04-22T01:27:12.987Z,9.37
2019-04-22T01:29:43.196Z,11.27
2019-04-22T01:32:06.203Z,11.50
2019-04-22T01:34:49.915Z,13.03
2019-04-22T01:37:24.065Z,8.30
2019-04-22T01:40:04.763Z,10.70
2019-04-22T01:42:39.428Z,8.90
2019-04-22T01:45:12.093Z,10.43
2019-04-22T01:50:12.133Z,9.60
2019-04-22T01:52:46.769Z,8.70
2019-04-22T01:55:17.721Z,26.20
2019-04-22T01:57:41.933Z,52.43
2019-04-22T02:00:05.835Z,167.43
2019-04-22T02:02:48.956Z,13.13
2019-04-22T02:05:24.826Z,14.33
2019-04-22T02:07:56.161Z,23.17
2019-04-22T02:10:29.559Z,14.40
2019-04-22T02:13:02.018Z,16.00
2019-04-22T02:15:47.856Z,17.40
2019-04-22T02:18:01.345Z,17.90
2019-04-22T02:20:36.610Z,16.03
2019-04-22T02:26:02.485Z,12.60
2019-04-22T02:28:38.422Z,12.90
2019-04-22T02:34:05.372Z,19.37
2019-04-22T02:36:30.533Z,16.23
2019-04-22T02:44:12.106Z,20.63
2019-04-22T02:46:39.192Z,16.33
2019-04-22T02:51:22.130Z,15.53
2019-04-22T03:04:04.558Z,8.57
2019-04-22T03:16:48.838Z,10.67
2019-04-22T03:24:20.309Z,19.27
2019-04-22T03:26:48.592Z,21.20
2019-04-22T03:29:18.112Z,18.73
2019-04-22T03:39:44.923Z,15.37
2019-04-22T03:42:11.007Z,23.70
2019-04-22T03:54:53.891Z,14.63
2019-04-22T03:59:51.396Z,19.80
2019-04-22T04:02:35.755Z,18.33
2019-04-22T04:04:52.405Z,21.10
2019-04-22T04:07:32.436Z,19.10
2019-04-22T04:09:58.235Z,14.53
2019-04-22T04:15:09.406Z,12.67
2019-04-22T04:25:16.794Z,13.07
2019-04-22T04:28:22.909Z,13.43
2019-04-22T04:30:13.741Z,15.30
2019-04-22T04:35:35.035Z,18.93
2019-04-22T04:42:46.354Z,13.93
2019-04-22T04:45:34.096Z,21.27
2019-04-22T04:50:26.734Z,22.37
2019-04-22T05:03:08.132Z,20.83
2019-04-22T05:05:31.798Z,16.33
2019-04-22T05:08:00.307Z,21.07
2019-04-22T05:13:26.062Z,16.90
2019-04-22T05:15:43.405Z,18.67
2019-04-22T05:23:19.401Z,19.13
2019-04-22T05:25:41.391Z,19.20
2019-04-22T05:28:10.384Z,21.80
2019-04-22T05:30:50.304Z,19.13
2019-04-22T05:33:17.538Z,18.20
2019-04-22T05:35:46.295Z,20.43
2019-04-22T05:38:30.795Z,16.37
2019-04-22T05:40:54.635Z,16.47
2019-04-22T05:43:21.326Z,16.33
2019-04-22T05:45:54.471Z,16.90
2019-04-22T05:48:30.525Z,43.00
2019-04-22T05:50:59.461Z,62.20
2019-04-22T05:53:25.971Z,18.53
2019-04-22T05:56:09.941Z,19.47
2019-04-22T05:58:41.531Z,17.87
2019-04-22T06:01:30.746Z,15.33
2019-04-22T06:03:42.581Z,19.67
2019-04-22T06:06:10.625Z,17.37
2019-04-22T06:08:42.458Z,15.53
2019-04-22T06:11:24.461Z,13.23
2019-04-22T06:13:50.242Z,36.87
2019-04-22T06:16:25.875Z,48.07
2019-04-22T06:19:01.045Z,19.27
2019-04-22T06:21:35.792Z,169.90
2019-04-22T06:24:06.365Z,37.17
2019-04-22T06:26:48.877Z,16.47
2019-04-22T06:29:13.328Z,17.13
2019-04-22T06:31:49.715Z,19.00
2019-04-22T06:34:10.523Z,13.63
2019-04-22T06:36:46.322Z,14.10
2019-04-22T06:39:14.282Z,13.53
2019-04-22T06:41:50.553Z,14.47
2019-04-22T06:44:33.381Z,15.80
2019-04-22T06:46:47.966Z,22.90
2019-04-22T06:49:27.367Z,25.93
2019-04-22T06:51:55.718Z,16.27
2019-04-22T06:54:22.249Z,12.43
2019-04-22T06:56:57.794Z,13.20
2019-04-22T06:59:26.559Z,10.60
2019-04-22T07:04:28.222Z,8.83
2019-04-22T07:07:04.723Z,9.63
2019-04-22T07:09:42.859Z,9.80
2019-04-22T07:12:08.386Z,8.50
2019-04-22T07:14:37.118Z,12.47
2019-04-22T07:17:10.229Z,7.40
2019-04-22T07:19:40.368Z,7.93
2019-04-22T07:22:11.258Z,7.77
2019-04-22T07:29:50.725Z,9.33
2019-04-22T07:32:17.305Z,87.20
2019-04-22T07:34:52.182Z,16.73
2019-04-22T07:37:29.680Z,7.90
2019-04-22T07:39:45.905Z,6.80
2019-04-22T07:42:27.868Z,6.07
2019-04-22T07:47:34.159Z,8.40
2019-04-22T07:50:03.964Z,11.00
2019-04-22T07:52:27.829Z,6.97
2019-04-22T07:54:59.517Z,6.83
2019-04-22T07:57:46.590Z,6.47
2019-04-22T08:02:37.457Z,7.13
2019-04-22T08:07:35.982Z,7.80
2019-04-22T08:10:16.998Z,7.93
2019-04-22T08:15:12.627Z,7.13
2019-04-22T08:20:18.910Z,8.47
2019-04-22T08:22:51.024Z,6.37
2019-04-22T08:25:16.503Z,7.17
2019-04-22T08:27:51.882Z,7.63
2019-04-22T08:30:28.937Z,7.50
2019-04-22T08:32:58.898Z,9.37
2019-04-22T08:35:29.373Z,9.13
2019-04-22T08:37:57.555Z,8.47
2019-04-22T08:40:32.163Z,69.20
2019-04-22T08:43:09.177Z,296.93
2019-04-22T08:45:31.774Z,44.43
2019-04-22T08:48:01.613Z,11.57
2019-04-22T08:50:39.517Z,7.77
2019-04-22T08:53:11.088Z,7.50
2019-04-22T08:58:21.337Z,7.73
2019-04-22T09:00:49.910Z,8.50
2019-04-22T09:03:13.724Z,6.40
2019-04-22T09:08:19.095Z,10.77
2019-04-22T09:10:50.319Z,7.10
2019-04-22T09:13:26.378Z,7.30
2019-04-22T09:15:48.906Z,12.90
2019-04-22T09:18:33.225Z,9.00
2019-04-22T09:21:08.796Z,7.07
2019-04-22T09:23:30.334Z,6.17
2019-04-22T09:26:01.434Z,46.77
2019-04-22T09:28:34.527Z,33.37
2019-04-22T09:31:06.464Z,6.73
2019-04-22T09:33:31.901Z,8.40
2019-04-22T09:38:38.189Z,8.43
2019-04-22T09:41:10.681Z,8.87
2019-04-22T09:43:47.075Z,7.53
2019-04-22T09:46:14.896Z,7.57
2019-04-22T09:48:44.128Z,8.13
2019-04-22T09:51:12.233Z,8.07
2019-04-22T09:53:54.897Z,8.07
2019-04-22T09:56:17.807Z,7.03
2019-04-22T09:58:53.583Z,10.77
2019-04-22T10:06:27.797Z,120.97
2019-04-22T10:09:24.057Z,11.47
2019-04-22T10:14:01.630Z,9.80
2019-04-22T10:16:31.355Z,8.63
2019-04-22T10:24:03.416Z,12.50
2019-04-22T10:26:39.817Z,8.73
2019-04-22T10:29:10.988Z,8.53
2019-04-22T10:31:57.539Z,9.07
2019-04-22T10:34:00.129Z,8.23
2019-04-22T10:36:19.584Z,8.30
2019-04-22T10:38:50.482Z,8.87
2019-04-22T10:41:20.683Z,11.00
2019-04-22T10:43:51.001Z,8.50
2019-04-22T10:46:22.192Z,8.67
2019-04-22T10:48:52.737Z,15.37
2019-04-22T10:51:22.538Z,8.03
2019-04-22T10:53:53.417Z,10.40
2019-04-22T10:56:23.289Z,8.87
2019-04-22T10:58:53.041Z,7.30
2019-04-22T11:01:23.275Z,7.70
2019-04-22T11:03:53.195Z,8.30
2019-04-22T11:06:25.376Z,10.33
2019-04-22T11:08:59.775Z,8.40
2019-04-22T11:11:41.255Z,10.13
2019-04-22T11:14:00.093Z,9.43
2019-04-22T11:16:31.727Z,11.43
2019-04-22T11:19:01.557Z,8.37
2019-04-22T11:21:31.770Z,8.53
2019-04-22T11:24:02.836Z,7.70
2019-04-22T11:26:32.686Z,7.27
2019-04-22T11:29:03.585Z,9.07
2019-04-22T11:31:34.462Z,7.93
2019-04-22T11:34:04.348Z,8.57
2019-04-22T11:36:34.533Z,7.27
2019-04-22T11:39:09.706Z,7.23
2019-04-22T11:41:38.492Z,8.37
2019-04-22T11:44:09.540Z,8.27
2019-04-22T11:46:39.484Z,7.10
2019-04-22T11:49:09.943Z,8.00
2019-04-22T11:51:40.407Z,39.77
2019-04-22T11:54:10.618Z,10.40
2019-04-22T11:56:41.007Z,7.43
2019-04-22T11:59:10.973Z,10.07
2019-04-22T12:01:40.689Z,7.10
2019-04-22T12:04:11.661Z,9.53
2019-04-22T12:06:41.975Z,6.80
2019-04-22T12:09:15.259Z,7.83
2019-04-22T12:11:46.773Z,6.73
2019-04-22T12:14:18.078Z,7.10
2019-04-22T12:16:49.740Z,5.93
2019-04-22T12:19:20.828Z,5.57
2019-04-22T12:21:51.191Z,6.40
2019-04-22T12:24:21.455Z,8.20
2019-04-22T12:26:53.749Z,5.53
2019-04-22T12:29:24.765Z,5.03
2019-04-22T12:31:55.578Z,4.93
2019-04-22T12:34:25.747Z,6.23
2019-04-22T12:36:56.334Z,7.60
2019-04-22T12:39:27.487Z,6.13
2019-04-22T12:41:58.431Z,5.73
2019-04-22T12:44:30.406Z,5.70
2019-04-22T12:47:02.089Z,5.30
2019-04-22T12:49:32.254Z,7.40
2019-04-22T12:52:03.165Z,4.93
2019-04-22T12:54:33.129Z,5.43
2019-04-22T12:57:03.987Z,5.30
2019-04-22T12:59:35.248Z,7.87
2019-04-22T13:02:05.130Z,16.03
2019-04-22T13:04:36.141Z,29.53
2019-04-22T13:07:06.173Z,7.87
2019-04-22T13:09:37.026Z,9.07
2019-04-22T13:12:07.159Z,8.23
2019-04-22T13:14:36.953Z,7.20
2019-04-22T13:17:08.052Z,9.70
2019-04-22T13:19:38.112Z,9.57
2019-04-22T13:22:09.127Z,6.10
2019-04-22T13:24:39.682Z,30.37
2019-04-22T13:27:10.937Z,10.90
2019-04-22T13:29:41.207Z,8.83
2019-04-22T13:32:10.987Z,5.83
2019-04-22T13:34:46.617Z,8.57
2019-04-22T13:37:14.732Z,6.07
2019-04-22T13:39:45.079Z,5.30
2019-04-22T13:42:19.655Z,5.53
2019-04-22T13:44:46.438Z,6.90
2019-04-22T13:47:36.075Z,7.03
2019-04-22T13:50:25.973Z,8.37
2019-04-22T13:52:53.618Z,5.83
2019-04-22T13:55:22.080Z,5.93
2019-04-22T13:57:44.083Z,6.50
2019-04-22T13:59:57.633Z,6.60
2019-04-22T14:02:36.800Z,6.63
2019-04-22T14:05:10.562Z,7.13
2019-04-22T14:07:41.193Z,8.67
2019-04-22T14:10:12.136Z,8.37
2019-04-22T14:12:42.675Z,5.80
2019-04-22T14:15:13.911Z,7.23
2019-04-22T14:17:45.260Z,6.17
2019-04-22T14:20:15.821Z,6.27
2019-04-22T14:22:46.302Z,5.50
2019-04-22T14:25:16.619Z,8.33
2019-04-22T14:27:54.507Z,5.17
2019-04-22T14:30:20.903Z,6.00
2019-04-22T14:32:51.291Z,6.20
2019-04-22T14:35:23.000Z,6.60
2019-04-22T14:37:54.407Z,7.20
2019-04-22T14:40:26.565Z,5.83
2019-04-22T14:43:13.870Z,5.90
2019-04-22T14:46:04.051Z,5.50
2019-04-22T14:48:28.586Z,6.17
2019-04-22T14:50:51.404Z,6.27
2019-04-22T14:53:23.674Z,6.87
2019-04-22T14:55:38.320Z,6.97
2019-04-22T14:58:08.986Z,5.97
2019-04-22T15:00:40.017Z,7.67
2019-04-22T15:03:10.302Z,9.23
2019-04-22T15:05:40.141Z,5.13
2019-04-22T15:08:10.972Z,5.87
2019-04-22T15:10:42.125Z,4.47
2019-04-22T15:13:13.459Z,9.30
2019-04-22T15:15:48.943Z,13.33
2019-04-22T15:18:21.895Z,25.10
2019-04-22T15:20:54.283Z,10.30
2019-04-22T15:23:24.883Z,5.73
2019-04-22T15:25:54.770Z,6.97
2019-04-22T15:28:24.705Z,6.93
2019-04-22T15:30:59.481Z,6.07
2019-04-22T15:33:29.642Z,11.00
2019-04-22T15:35:59.467Z,7.40
2019-04-22T15:38:30.225Z,5.43
2019-04-22T15:41:00.927Z,7.97
2019-04-22T15:43:33.253Z,7.83
2019-04-22T15:46:03.828Z,12.23
2019-04-22T15:48:36.144Z,6.27
2019-04-22T15:51:06.843Z,13.83
2019-04-22T15:53:37.834Z,7.43
2019-04-22T15:56:08.527Z,6.13
2019-04-22T15:58:41.688Z,5.73
2019-04-22T16:01:28.061Z,6.93
2019-04-22T16:03:47.110Z,5.77
2019-04-22T16:06:17.743Z,8.40
2019-04-22T16:08:49.830Z,6.57
2019-04-22T16:11:20.033Z,6.60
2019-04-22T16:13:50.594Z,5.50
2019-04-22T16:16:22.944Z,5.40
2019-04-22T16:18:54.083Z,4.77
2019-04-22T16:21:32.734Z,6.07
2019-04-22T16:24:20.181Z,5.43
2019-04-22T16:26:58.192Z,11.20
2019-04-22T16:29:27.476Z,7.13
2019-04-22T16:31:57.627Z,11.57
2019-04-22T16:34:27.389Z,8.87
2019-04-22T16:36:57.022Z,7.80
2019-04-22T16:39:28.729Z,6.70
2019-04-22T16:41:58.531Z,10.03
2019-04-22T16:44:28.220Z,7.70
2019-04-22T16:46:57.833Z,6.60
2019-04-22T16:49:29.780Z,22.47
2019-04-22T16:52:00.322Z,18.43
2019-04-22T16:54:30.737Z,7.33
2019-04-22T16:57:01.871Z,10.77
2019-04-22T16:59:32.757Z,7.87
2019-04-22T17:02:16.815Z,11.77
2019-04-22T17:04:50.903Z,7.10
2019-04-22T17:07:22.396Z,10.70
2019-04-22T17:09:52.286Z,12.07
2019-04-22T17:12:22.042Z,10.20
2019-04-22T17:14:56.816Z,9.43
2019-04-22T17:17:24.520Z,9.17
2019-04-22T17:19:55.501Z,7.37
2019-04-22T17:22:25.967Z,11.73
2019-04-22T17:24:56.118Z,7.43
2019-04-22T17:27:26.613Z,9.97
2019-04-22T17:29:57.018Z,8.60
2019-04-22T17:32:28.783Z,8.73
2019-04-22T17:34:59.348Z,11.90
2019-04-22T17:37:33.363Z,13.23
2019-04-22T17:40:17.910Z,21.60
2019-04-22T17:42:49.516Z,18.03
2019-04-22T17:45:35.320Z,14.40
2019-04-22T17:48:00.728Z,17.10
2019-04-22T17:50:39.248Z,18.10
2019-04-22T17:53:18.407Z,19.40
2019-04-22T17:55:48.943Z,28.23
2019-04-22T17:58:14.654Z,45.03
2019-04-22T18:00:39.848Z,50.33
2019-04-22T18:03:08.758Z,51.83
2019-04-22T18:05:35.670Z,55.00
2019-04-22T18:08:17.005Z,34.43
2019-04-22T18:10:51.049Z,29.67
2019-04-22T18:13:28.225Z,31.43
2019-04-22T18:15:54.773Z,22.30
2019-04-22T18:18:32.822Z,21.13
2019-04-22T18:20:50.946Z,14.97
2019-04-22T18:23:14.643Z,12.73
2019-04-22T18:25:59.078Z,13.60
2019-04-22T18:28:37.586Z,10.90
2019-04-22T18:31:01.284Z,12.33
2019-04-22T18:33:33.019Z,15.03
2019-04-22T18:36:04.074Z,15.03
2019-04-22T18:38:46.222Z,13.50
2019-04-22T18:41:09.050Z,17.87
2019-04-22T18:43:48.839Z,20.17
2019-04-22T18:46:14.658Z,30.03
2019-04-22T18:48:48.052Z,22.50
2019-04-22T18:51:27.708Z,28.53
2019-04-22T18:54:13.501Z,94.40
2019-04-22T18:56:41.865Z,52.33
2019-04-22T18:59:05.101Z,116.53
2019-04-22T19:01:25.682Z,44.37
2019-04-22T19:04:06.824Z,50.43
2019-04-22T19:06:50.453Z,48.83
2019-04-22T19:09:22.408Z,60.33
2019-04-22T19:12:06.231Z,65.27
2019-04-22T19:14:32.151Z,54.33
2019-04-22T19:16:55.418Z,45.60
2019-04-22T19:21:55.637Z,40.93
2019-04-22T19:24:22.889Z,38.10
2019-04-22T19:26:59.294Z,38.00
2019-04-22T19:29:31.801Z,135.63
2019-04-22T19:32:01.964Z,179.00
2019-04-22T19:34:31.703Z,67.03
2019-04-22T19:37:11.101Z,63.40
2019-04-22T19:39:33.024Z,67.53
2019-04-22T19:42:16.794Z,51.53
2019-04-22T19:44:39.364Z,70.40
2019-04-22T19:47:24.124Z,152.73
2019-04-22T19:49:52.506Z,68.17
2019-04-22T19:52:21.020Z,57.10
2019-04-22T19:54:53.132Z,97.20
2019-04-22T19:57:17.415Z,200.70
2019-04-22T19:59:55.915Z,133.63
2019-04-22T20:02:28.918Z,53.50
2019-04-22T20:05:12.533Z,66.97
2019-04-22T20:07:46.910Z,87.80
2019-04-22T20:10:18.646Z,149.87
2019-04-22T20:12:42.876Z,71.07
2019-04-22T20:15:15.618Z,95.73
2019-04-22T20:18:08.610Z,114.97
2019-04-22T20:20:27.456Z,120.33
2019-04-22T20:22:53.539Z,127.47
2019-04-22T20:25:16.709Z,128.47
2019-04-22T20:28:01.210Z,124.50
2019-04-22T20:30:34.656Z,128.07
2019-04-22T20:32:59.254Z,122.53
2019-04-22T20:35:39.095Z,43.77
2019-04-22T20:38:08.923Z,121.00
2019-04-22T20:40:39.548Z,44.03
2019-04-22T20:43:15.107Z,84.93
2019-04-22T20:45:39.620Z,88.13
2019-04-22T20:48:05.041Z,127.70
2019-04-22T20:50:48.035Z,137.13
2019-04-22T20:53:18.965Z,430.17
2019-04-22T20:55:47.869Z,232.00
2019-04-22T20:58:21.306Z,193.50
2019-04-22T21:00:40.670Z,159.10
2019-04-22T21:03:13.698Z,188.90
2019-04-22T21:05:44.432Z,141.80
2019-04-22T21:08:24.386Z,90.80
2019-04-22T21:10:50.770Z,77.43
2019-04-22T21:13:26.045Z,53.53
2019-04-22T21:16:04.123Z,29.53
2019-04-22T21:18:30.671Z,23.77
2019-04-22T21:21:11.407Z,21.77
2019-04-22T21:23:31.179Z,23.73
2019-04-22T21:26:11.590Z,39.03
2019-04-22T21:28:38.775Z,103.13
2019-04-22T21:31:19.125Z,96.83
2019-04-22T21:33:48.823Z,57.33
2019-04-22T21:36:20.588Z,28.30
2019-04-22T21:38:48.088Z,55.03
2019-04-22T21:41:17.161Z,85.17
2019-04-22T21:43:54.772Z,66.17
2019-04-22T21:46:23.196Z,51.33
2019-04-22T21:48:53.122Z,66.77
2019-04-22T21:51:31.725Z,67.30
2019-04-22T21:54:06.891Z,55.77
2019-04-22T21:56:54.841Z,47.43
2019-04-22T21:59:02.103Z,31.87
2019-04-22T22:01:42.619Z,25.60
2019-04-22T22:04:09.696Z,20.77
2019-04-22T22:06:33.665Z,20.47
2019-04-22T22:09:16.782Z,17.23
2019-04-22T22:11:38.603Z,19.67
2019-04-22T22:14:11.589Z,21.13
2019-04-22T22:16:38.416Z,22.03
2019-04-22T22:19:17.145Z,21.23
2019-04-22T22:21:57.005Z,19.03
2019-04-22T22:24:22.635Z,19.90
2019-04-22T22:26:55.584Z,22.13
2019-04-22T22:29:38.551Z,18.67
2019-04-22T22:31:58.182Z,16.93
2019-04-22T22:34:38.929Z,15.93
2019-04-22T22:36:53.030Z,19.37
2019-04-22T22:39:23.755Z,20.57
2019-04-22T22:41:41.966Z,16.73
2019-04-22T22:44:21.191Z,16.17
2019-04-22T22:47:03.636Z,14.83
2019-04-22T22:49:41.043Z,15.07
2019-04-22T22:52:31.456Z,14.93
2019-04-22T22:54:44.474Z,15.60
2019-04-22T22:57:25.503Z,18.30
2019-04-22T22:59:43.037Z,14.00
2019-04-22T23:02:11.619Z,12.57
2019-04-22T23:04:48.842Z,18.47
2019-04-22T23:07:25.223Z,17.37
2019-04-22T23:09:48.950Z,20.97
2019-04-22T23:12:31.248Z,18.27
2019-04-22T23:14:50.038Z,14.30
2019-04-22T23:17:10.102Z,16.97
2019-04-22T23:19:41.937Z,15.37
2019-04-22T23:22:20.380Z,15.37
2019-04-22T23:24:59.926Z,16.30
2019-04-22T23:27:44.518Z,13.60
2019-04-22T23:30:20.992Z,17.03
2019-04-22T23:32:57.820Z,17.93
2019-04-22T23:35:33.122Z,14.73
2019-04-22T23:38:07.345Z,14.80
2019-04-22T23:40:38.615Z,17.37
2019-04-22T23:43:17.937Z,21.43
2019-04-22T23:45:50.406Z,16.20
2019-04-22T23:48:15.426Z,16.13
2019-04-22T23:50:51.178Z,15.17
2019-04-22T23:53:56.926Z,14.53
2019-04-22T23:56:13.536Z,15.77
2019-04-22T23:58:47.148Z,20.27
